sensor_id;sensor_type;location;lat;lon;timestamp;temperature;humidity
21331;DHT22;10824;51.632;4.950;2022-11-14T00:00:46;5.50;99.90
21331;DHT22;10824;51.632;4.950;2022-11-14T00:03:32;5.60;99.90
21331;DHT22;10824;51.632;4.950;2022-11-14T00:06:18;5.50;99.90
21331;DHT22;10824;51.632;4.950;2022-11-14T00:09:04;5.50;99.90
21331;DHT22;10824;51.632;4.950;2022-11-14T00:11:49;5.50;99.90
21331;DHT22;10824;51.632;4.950;2022-11-14T00:14:36;5.50;99.90
21331;DHT22;10824;51.632;4.950;2022-11-14T00:17:21;5.60;99.90
21331;DHT22;10824;51.632;4.950;2022-11-14T00:20:09;5.60;99.90
21331;DHT22;10824;51.632;4.950;2022-11-14T00:22:55;5.50;99.90
21331;DHT22;10824;51.632;4.950;2022-11-14T00:25:43;5.60;99.90
21331;DHT22;10824;51.632;4.950;2022-11-14T00:28:28;5.50;99.90
21331;DHT22;10824;51.632;4.950;2022-11-14T00:31:15;5.60;99.90
21331;DHT22;10824;51.632;4.950;2022-11-14T00:34:00;5.60;99.90
21331;DHT22;10824;51.632;4.950;2022-11-14T00:36:45;5.60;99.90
21331;DHT22;10824;51.632;4.950;2022-11-14T00:39:31;5.60;99.90
21331;DHT22;10824;51.632;4.950;2022-11-14T00:42:16;5.60;99.90
21331;DHT22;10824;51.632;4.950;2022-11-14T00:45:03;5.60;99.90
21331;DHT22;10824;51.632;4.950;2022-11-14T00:47:48;5.60;99.90
21331;DHT22;10824;51.632;4.950;2022-11-14T00:50:35;5.60;99.90
21331;DHT22;10824;51.632;4.950;2022-11-14T00:53:22;5.60;99.90
21331;DHT22;10824;51.632;4.950;2022-11-14T00:56:07;5.50;99.90
21331;DHT22;10824;51.632;4.950;2022-11-14T00:58:53;5.50;99.90
21331;DHT22;10824;51.632;4.950;2022-11-14T01:01:39;5.50;99.90
21331;DHT22;10824;51.632;4.950;2022-11-14T01:04:25;5.40;99.90
21331;DHT22;10824;51.632;4.950;2022-11-14T01:07:10;5.40;99.90
21331;DHT22;10824;51.632;4.950;2022-11-14T01:09:56;5.50;99.90
21331;DHT22;10824;51.632;4.950;2022-11-14T01:12:42;5.50;99.90
21331;DHT22;10824;51.632;4.950;2022-11-14T01:15:27;5.50;99.90
21331;DHT22;10824;51.632;4.950;2022-11-14T01:18:16;5.50;99.90
21331;DHT22;10824;51.632;4.950;2022-11-14T01:21:06;5.40;99.90
21331;DHT22;10824;51.632;4.950;2022-11-14T01:23:52;5.30;99.90
21331;DHT22;10824;51.632;4.950;2022-11-14T01:26:37;5.40;99.90
21331;DHT22;10824;51.632;4.950;2022-11-14T01:29:23;5.30;99.90
21331;DHT22;10824;51.632;4.950;2022-11-14T01:32:09;5.30;99.90
21331;DHT22;10824;51.632;4.950;2022-11-14T01:34:54;5.30;99.90
21331;DHT22;10824;51.632;4.950;2022-11-14T01:37:40;5.20;99.90
21331;DHT22;10824;51.632;4.950;2022-11-14T01:40:26;5.10;99.90
21331;DHT22;10824;51.632;4.950;2022-11-14T01:46:30;5.10;99.90
21331;DHT22;10824;51.632;4.950;2022-11-14T01:49:20;5.20;99.90
21331;DHT22;10824;51.632;4.950;2022-11-14T01:52:16;5.20;99.90
21331;DHT22;10824;51.632;4.950;2022-11-14T01:55:06;5.20;99.90
21331;DHT22;10824;51.632;4.950;2022-11-14T01:57:53;5.20;99.90
21331;DHT22;10824;51.632;4.950;2022-11-14T02:00:38;5.20;99.90
21331;DHT22;10824;51.632;4.950;2022-11-14T02:03:24;5.20;99.90
21331;DHT22;10824;51.632;4.950;2022-11-14T02:06:13;5.20;99.90
21331;DHT22;10824;51.632;4.950;2022-11-14T02:09:03;5.10;99.90
21331;DHT22;10824;51.632;4.950;2022-11-14T02:11:49;5.00;99.90
21331;DHT22;10824;51.632;4.950;2022-11-14T02:14:36;5.00;99.90
21331;DHT22;10824;51.632;4.950;2022-11-14T02:17:23;5.00;99.90
21331;DHT22;10824;51.632;4.950;2022-11-14T02:20:20;5.00;99.90
21331;DHT22;10824;51.632;4.950;2022-11-14T02:23:05;4.90;99.90
21331;DHT22;10824;51.632;4.950;2022-11-14T02:25:50;4.90;99.90
21331;DHT22;10824;51.632;4.950;2022-11-14T02:28:36;4.90;99.90
21331;DHT22;10824;51.632;4.950;2022-11-14T02:31:22;4.90;99.90
21331;DHT22;10824;51.632;4.950;2022-11-14T02:34:07;4.90;99.90
21331;DHT22;10824;51.632;4.950;2022-11-14T02:36:53;4.80;99.90
21331;DHT22;10824;51.632;4.950;2022-11-14T02:39:38;4.90;99.90
21331;DHT22;10824;51.632;4.950;2022-11-14T02:42:25;4.80;99.90
21331;DHT22;10824;51.632;4.950;2022-11-14T02:45:11;4.80;99.90
21331;DHT22;10824;51.632;4.950;2022-11-14T02:47:57;4.80;99.90
21331;DHT22;10824;51.632;4.950;2022-11-14T02:50:42;4.70;99.90
21331;DHT22;10824;51.632;4.950;2022-11-14T02:53:28;4.70;99.90
21331;DHT22;10824;51.632;4.950;2022-11-14T02:56:14;4.60;99.90
21331;DHT22;10824;51.632;4.950;2022-11-14T02:58:59;4.60;99.90
21331;DHT22;10824;51.632;4.950;2022-11-14T03:01:45;4.60;99.90
21331;DHT22;10824;51.632;4.950;2022-11-14T03:04:30;4.60;99.90
21331;DHT22;10824;51.632;4.950;2022-11-14T03:07:17;4.60;99.90
21331;DHT22;10824;51.632;4.950;2022-11-14T03:10:03;4.60;99.90
21331;DHT22;10824;51.632;4.950;2022-11-14T03:12:55;4.50;99.90
21331;DHT22;10824;51.632;4.950;2022-11-14T03:15:41;4.60;99.90
21331;DHT22;10824;51.632;4.950;2022-11-14T03:18:26;4.60;99.90
21331;DHT22;10824;51.632;4.950;2022-11-14T03:21:16;4.60;99.90
21331;DHT22;10824;51.632;4.950;2022-11-14T03:24:01;4.70;99.90
21331;DHT22;10824;51.632;4.950;2022-11-14T03:26:47;4.60;99.90
21331;DHT22;10824;51.632;4.950;2022-11-14T03:29:33;4.60;99.90
21331;DHT22;10824;51.632;4.950;2022-11-14T03:32:19;4.60;99.90
21331;DHT22;10824;51.632;4.950;2022-11-14T03:35:05;4.60;99.90
21331;DHT22;10824;51.632;4.950;2022-11-14T03:37:50;4.60;99.90
21331;DHT22;10824;51.632;4.950;2022-11-14T03:40:41;4.60;99.90
21331;DHT22;10824;51.632;4.950;2022-11-14T03:43:31;4.60;99.90
21331;DHT22;10824;51.632;4.950;2022-11-14T03:46:16;4.50;99.90
21331;DHT22;10824;51.632;4.950;2022-11-14T03:49:02;4.50;99.90
21331;DHT22;10824;51.632;4.950;2022-11-14T03:51:51;4.50;99.90
21331;DHT22;10824;51.632;4.950;2022-11-14T03:54:37;4.50;99.90
21331;DHT22;10824;51.632;4.950;2022-11-14T03:57:22;4.40;99.90
21331;DHT22;10824;51.632;4.950;2022-11-14T04:00:08;4.40;99.90
21331;DHT22;10824;51.632;4.950;2022-11-14T04:02:55;4.40;99.90
21331;DHT22;10824;51.632;4.950;2022-11-14T04:05:44;4.40;99.90
21331;DHT22;10824;51.632;4.950;2022-11-14T04:08:30;4.50;99.90
21331;DHT22;10824;51.632;4.950;2022-11-14T04:11:17;4.40;99.90
21331;DHT22;10824;51.632;4.950;2022-11-14T04:14:03;4.40;99.90
21331;DHT22;10824;51.632;4.950;2022-11-14T04:16:48;4.40;99.90
21331;DHT22;10824;51.632;4.950;2022-11-14T04:19:34;4.40;99.90
21331;DHT22;10824;51.632;4.950;2022-11-14T04:22:20;4.40;99.90
21331;DHT22;10824;51.632;4.950;2022-11-14T04:25:06;4.40;99.90
21331;DHT22;10824;51.632;4.950;2022-11-14T04:27:52;4.40;99.90
21331;DHT22;10824;51.632;4.950;2022-11-14T04:30:38;4.30;99.90
21331;DHT22;10824;51.632;4.950;2022-11-14T04:33:24;4.30;99.90
21331;DHT22;10824;51.632;4.950;2022-11-14T04:36:09;4.30;99.90
21331;DHT22;10824;51.632;4.950;2022-11-14T04:38:55;4.30;99.90
21331;DHT22;10824;51.632;4.950;2022-11-14T04:41:40;4.30;99.90
21331;DHT22;10824;51.632;4.950;2022-11-14T04:44:25;4.30;99.90
21331;DHT22;10824;51.632;4.950;2022-11-14T04:47:11;4.30;99.90
21331;DHT22;10824;51.632;4.950;2022-11-14T04:49:56;4.20;99.90
21331;DHT22;10824;51.632;4.950;2022-11-14T04:52:42;4.10;99.90
21331;DHT22;10824;51.632;4.950;2022-11-14T04:55:27;4.10;99.90
21331;DHT22;10824;51.632;4.950;2022-11-14T04:58:13;4.10;99.90
21331;DHT22;10824;51.632;4.950;2022-11-14T05:00:58;4.00;99.90
21331;DHT22;10824;51.632;4.950;2022-11-14T05:03:44;4.00;99.90
21331;DHT22;10824;51.632;4.950;2022-11-14T05:06:30;4.10;99.90
21331;DHT22;10824;51.632;4.950;2022-11-14T05:09:15;4.00;99.90
21331;DHT22;10824;51.632;4.950;2022-11-14T05:12:02;4.00;99.90
21331;DHT22;10824;51.632;4.950;2022-11-14T05:14:48;3.90;99.90
21331;DHT22;10824;51.632;4.950;2022-11-14T05:17:33;3.90;99.90
21331;DHT22;10824;51.632;4.950;2022-11-14T05:20:19;3.80;99.90
21331;DHT22;10824;51.632;4.950;2022-11-14T05:23:04;3.80;99.90
21331;DHT22;10824;51.632;4.950;2022-11-14T05:26:04;3.70;99.90
21331;DHT22;10824;51.632;4.950;2022-11-14T05:28:49;3.70;99.90
21331;DHT22;10824;51.632;4.950;2022-11-14T05:31:35;3.70;99.90
21331;DHT22;10824;51.632;4.950;2022-11-14T05:34:20;3.80;99.90
21331;DHT22;10824;51.632;4.950;2022-11-14T05:37:05;3.80;99.90
21331;DHT22;10824;51.632;4.950;2022-11-14T05:39:52;3.80;99.90
21331;DHT22;10824;51.632;4.950;2022-11-14T05:42:37;3.80;99.90
21331;DHT22;10824;51.632;4.950;2022-11-14T05:45:23;3.70;99.90
21331;DHT22;10824;51.632;4.950;2022-11-14T05:48:08;3.70;99.90
21331;DHT22;10824;51.632;4.950;2022-11-14T05:51:00;3.70;99.90
21331;DHT22;10824;51.632;4.950;2022-11-14T05:53:46;3.80;99.90
21331;DHT22;10824;51.632;4.950;2022-11-14T05:56:32;3.70;99.90
21331;DHT22;10824;51.632;4.950;2022-11-14T05:59:18;3.70;99.90
21331;DHT22;10824;51.632;4.950;2022-11-14T06:02:03;3.70;99.90
21331;DHT22;10824;51.632;4.950;2022-11-14T06:04:49;3.70;99.90
21331;DHT22;10824;51.632;4.950;2022-11-14T06:07:35;3.70;99.90
21331;DHT22;10824;51.632;4.950;2022-11-14T06:10:22;3.70;99.90
21331;DHT22;10824;51.632;4.950;2022-11-14T06:13:08;3.70;99.90
21331;DHT22;10824;51.632;4.950;2022-11-14T06:16:00;3.70;99.90
21331;DHT22;10824;51.632;4.950;2022-11-14T06:18:47;3.60;99.90
21331;DHT22;10824;51.632;4.950;2022-11-14T06:21:33;3.60;99.90
21331;DHT22;10824;51.632;4.950;2022-11-14T06:24:21;3.60;99.90
21331;DHT22;10824;51.632;4.950;2022-11-14T06:27:08;3.60;99.90
21331;DHT22;10824;51.632;4.950;2022-11-14T06:29:54;3.60;99.90
21331;DHT22;10824;51.632;4.950;2022-11-14T06:32:39;3.60;99.90
21331;DHT22;10824;51.632;4.950;2022-11-14T06:35:26;3.60;99.90
21331;DHT22;10824;51.632;4.950;2022-11-14T06:38:11;3.50;99.90
21331;DHT22;10824;51.632;4.950;2022-11-14T06:41:05;3.60;99.90
21331;DHT22;10824;51.632;4.950;2022-11-14T06:43:51;3.50;99.90
21331;DHT22;10824;51.632;4.950;2022-11-14T06:46:40;3.60;99.90
21331;DHT22;10824;51.632;4.950;2022-11-14T06:49:25;3.50;99.90
21331;DHT22;10824;51.632;4.950;2022-11-14T06:52:12;3.50;99.90
21331;DHT22;10824;51.632;4.950;2022-11-14T06:54:57;3.50;99.90
21331;DHT22;10824;51.632;4.950;2022-11-14T06:57:43;3.50;99.90
21331;DHT22;10824;51.632;4.950;2022-11-14T07:00:28;3.40;99.90
21331;DHT22;10824;51.632;4.950;2022-11-14T07:03:19;3.40;99.90
21331;DHT22;10824;51.632;4.950;2022-11-14T07:06:06;3.30;99.90
21331;DHT22;10824;51.632;4.950;2022-11-14T07:08:53;3.30;99.90
21331;DHT22;10824;51.632;4.950;2022-11-14T07:11:39;3.30;99.90
21331;DHT22;10824;51.632;4.950;2022-11-14T07:14:24;3.30;99.90
21331;DHT22;10824;51.632;4.950;2022-11-14T07:17:09;3.40;99.90
21331;DHT22;10824;51.632;4.950;2022-11-14T07:19:55;3.40;99.90
21331;DHT22;10824;51.632;4.950;2022-11-14T07:22:41;3.40;99.90
21331;DHT22;10824;51.632;4.950;2022-11-14T07:25:26;3.40;99.90
21331;DHT22;10824;51.632;4.950;2022-11-14T07:28:12;3.40;99.90
21331;DHT22;10824;51.632;4.950;2022-11-14T07:30:57;3.30;99.90
21331;DHT22;10824;51.632;4.950;2022-11-14T07:33:43;3.30;99.90
21331;DHT22;10824;51.632;4.950;2022-11-14T07:36:29;3.40;99.90
21331;DHT22;10824;51.632;4.950;2022-11-14T07:39:15;3.40;99.90
21331;DHT22;10824;51.632;4.950;2022-11-14T07:42:00;3.40;99.90
21331;DHT22;10824;51.632;4.950;2022-11-14T07:44:45;3.40;99.90
21331;DHT22;10824;51.632;4.950;2022-11-14T07:47:31;3.40;99.90
21331;DHT22;10824;51.632;4.950;2022-11-14T07:50:17;3.40;99.90
21331;DHT22;10824;51.632;4.950;2022-11-14T07:53:05;3.40;99.90
21331;DHT22;10824;51.632;4.950;2022-11-14T07:55:50;3.40;99.90
21331;DHT22;10824;51.632;4.950;2022-11-14T07:58:37;3.40;99.90
21331;DHT22;10824;51.632;4.950;2022-11-14T08:01:23;3.40;99.90
21331;DHT22;10824;51.632;4.950;2022-11-14T08:04:09;3.50;99.90
21331;DHT22;10824;51.632;4.950;2022-11-14T08:06:54;3.50;99.90
21331;DHT22;10824;51.632;4.950;2022-11-14T08:09:40;3.60;99.90
21331;DHT22;10824;51.632;4.950;2022-11-14T08:12:26;3.60;99.90
21331;DHT22;10824;51.632;4.950;2022-11-14T08:15:13;3.70;99.90
21331;DHT22;10824;51.632;4.950;2022-11-14T08:18:00;3.70;99.90
21331;DHT22;10824;51.632;4.950;2022-11-14T08:20:46;3.80;99.90
21331;DHT22;10824;51.632;4.950;2022-11-14T08:23:32;3.80;99.90
21331;DHT22;10824;51.632;4.950;2022-11-14T08:26:17;3.80;99.90
21331;DHT22;10824;51.632;4.950;2022-11-14T08:29:03;3.90;99.90
21331;DHT22;10824;51.632;4.950;2022-11-14T08:31:49;3.90;99.90
21331;DHT22;10824;51.632;4.950;2022-11-14T08:34:37;4.00;99.90
21331;DHT22;10824;51.632;4.950;2022-11-14T08:37:23;4.10;99.90
21331;DHT22;10824;51.632;4.950;2022-11-14T08:40:09;4.20;99.90
21331;DHT22;10824;51.632;4.950;2022-11-14T08:42:59;4.30;99.90
21331;DHT22;10824;51.632;4.950;2022-11-14T08:45:46;4.30;99.90
21331;DHT22;10824;51.632;4.950;2022-11-14T08:48:33;4.40;99.90
21331;DHT22;10824;51.632;4.950;2022-11-14T08:51:19;4.40;99.90
21331;DHT22;10824;51.632;4.950;2022-11-14T08:54:05;4.50;99.90
21331;DHT22;10824;51.632;4.950;2022-11-14T08:56:51;4.60;99.90
21331;DHT22;10824;51.632;4.950;2022-11-14T08:59:36;4.70;99.90
21331;DHT22;10824;51.632;4.950;2022-11-14T09:02:22;4.80;99.90
21331;DHT22;10824;51.632;4.950;2022-11-14T09:05:08;4.90;99.90
21331;DHT22;10824;51.632;4.950;2022-11-14T09:07:54;5.10;99.90
21331;DHT22;10824;51.632;4.950;2022-11-14T09:10:40;5.20;99.90
21331;DHT22;10824;51.632;4.950;2022-11-14T09:13:25;5.30;99.90
21331;DHT22;10824;51.632;4.950;2022-11-14T09:16:12;5.50;99.90
21331;DHT22;10824;51.632;4.950;2022-11-14T09:18:58;5.60;99.90
21331;DHT22;10824;51.632;4.950;2022-11-14T09:21:44;5.80;99.90
21331;DHT22;10824;51.632;4.950;2022-11-14T09:24:29;5.90;99.90
21331;DHT22;10824;51.632;4.950;2022-11-14T09:27:15;6.00;99.90
21331;DHT22;10824;51.632;4.950;2022-11-14T09:30:02;6.10;99.90
21331;DHT22;10824;51.632;4.950;2022-11-14T09:32:48;6.20;99.90
21331;DHT22;10824;51.632;4.950;2022-11-14T09:35:34;6.30;99.90
21331;DHT22;10824;51.632;4.950;2022-11-14T09:38:22;6.40;99.90
21331;DHT22;10824;51.632;4.950;2022-11-14T09:47:10;6.70;99.90
21331;DHT22;10824;51.632;4.950;2022-11-14T09:50:26;6.80;99.90
21331;DHT22;10824;51.632;4.950;2022-11-14T09:53:36;6.90;99.90
21331;DHT22;10824;51.632;4.950;2022-11-14T09:56:25;7.00;99.90
21331;DHT22;10824;51.632;4.950;2022-11-14T09:59:12;7.10;99.90
21331;DHT22;10824;51.632;4.950;2022-11-14T10:02:00;7.20;99.90
21331;DHT22;10824;51.632;4.950;2022-11-14T10:11:21;7.40;99.90
21331;DHT22;10824;51.632;4.950;2022-11-14T10:39:48;8.40;99.90
21331;DHT22;10824;51.632;4.950;2022-11-14T10:42:33;8.50;99.30
21331;DHT22;10824;51.632;4.950;2022-11-14T10:45:33;8.60;97.90
21331;DHT22;10824;51.632;4.950;2022-11-14T10:48:45;8.70;98.90
21331;DHT22;10824;51.632;4.950;2022-11-14T10:51:43;8.80;96.60
21331;DHT22;10824;51.632;4.950;2022-11-14T10:57:45;8.90;96.30
21331;DHT22;10824;51.632;4.950;2022-11-14T11:00:30;9.10;95.70
21331;DHT22;10824;51.632;4.950;2022-11-14T11:03:16;9.20;95.80
21331;DHT22;10824;51.632;4.950;2022-11-14T11:06:02;9.30;93.10
21331;DHT22;10824;51.632;4.950;2022-11-14T11:08:48;9.30;92.10
21331;DHT22;10824;51.632;4.950;2022-11-14T11:12:01;9.40;94.30
21331;DHT22;10824;51.632;4.950;2022-11-14T11:14:48;9.50;95.80
21331;DHT22;10824;51.632;4.950;2022-11-14T11:17:34;9.60;95.40
21331;DHT22;10824;51.632;4.950;2022-11-14T11:20:38;9.70;91.60
21331;DHT22;10824;51.632;4.950;2022-11-14T11:23:26;9.80;94.90
21331;DHT22;10824;51.632;4.950;2022-11-14T11:26:23;9.70;91.00
21331;DHT22;10824;51.632;4.950;2022-11-14T11:31:58;9.80;89.50
21331;DHT22;10824;51.632;4.950;2022-11-14T11:34:47;9.90;90.80
21331;DHT22;10824;51.632;4.950;2022-11-14T11:40:26;10.10;87.50
21331;DHT22;10824;51.632;4.950;2022-11-14T11:46:27;10.10;86.60
21331;DHT22;10824;51.632;4.950;2022-11-14T11:55:40;10.30;85.10
21331;DHT22;10824;51.632;4.950;2022-11-14T11:59:13;10.40;85.20
21331;DHT22;10824;51.632;4.950;2022-11-14T12:02:10;10.40;81.50
21331;DHT22;10824;51.632;4.950;2022-11-14T12:05:01;10.40;82.70
21331;DHT22;10824;51.632;4.950;2022-11-14T12:11:12;10.60;83.10
21331;DHT22;10824;51.632;4.950;2022-11-14T12:31:25;10.80;83.90
21331;DHT22;10824;51.632;4.950;2022-11-14T12:34:58;10.70;84.00
21331;DHT22;10824;51.632;4.950;2022-11-14T12:37:33;10.80;81.80
21331;DHT22;10824;51.632;4.950;2022-11-14T12:40:26;10.80;83.40
21331;DHT22;10824;51.632;4.950;2022-11-14T12:43:38;10.90;81.50
21331;DHT22;10824;51.632;4.950;2022-11-14T12:46:24;10.90;85.10
21331;DHT22;10824;51.632;4.950;2022-11-14T12:49:36;10.90;83.20
21331;DHT22;10824;51.632;4.950;2022-11-14T12:58:25;11.00;84.10
21331;DHT22;10824;51.632;4.950;2022-11-14T13:01:47;10.90;82.50
21331;DHT22;10824;51.632;4.950;2022-11-14T13:04:58;11.00;86.20
21331;DHT22;10824;51.632;4.950;2022-11-14T13:08:02;10.90;85.10
21331;DHT22;10824;51.632;4.950;2022-11-14T13:10:52;10.90;82.10
21331;DHT22;10824;51.632;4.950;2022-11-14T13:13:59;10.90;86.50
21331;DHT22;10824;51.632;4.950;2022-11-14T13:20:31;10.90;85.00
21331;DHT22;10824;51.632;4.950;2022-11-14T13:26:34;10.80;86.30
21331;DHT22;10824;51.632;4.950;2022-11-14T13:35:39;10.60;84.20
21331;DHT22;10824;51.632;4.950;2022-11-14T13:38:41;10.70;85.10
21331;DHT22;10824;51.632;4.950;2022-11-14T13:51:01;10.70;85.80
21331;DHT22;10824;51.632;4.950;2022-11-14T13:54:13;10.70;86.80
21331;DHT22;10824;51.632;4.950;2022-11-14T14:00:11;10.70;89.70
21331;DHT22;10824;51.632;4.950;2022-11-14T14:03:16;10.70;88.60
21331;DHT22;10824;51.632;4.950;2022-11-14T14:12:11;10.70;87.20
21331;DHT22;10824;51.632;4.950;2022-11-14T14:18:28;10.50;86.50
21331;DHT22;10824;51.632;4.950;2022-11-14T14:24:54;10.40;87.70
21331;DHT22;10824;51.632;4.950;2022-11-14T14:28:14;10.50;89.50
21331;DHT22;10824;51.632;4.950;2022-11-14T14:33:52;10.30;84.70
21331;DHT22;10824;51.632;4.950;2022-11-14T14:36:51;10.30;85.00
21331;DHT22;10824;51.632;4.950;2022-11-14T14:39:37;10.20;83.80
21331;DHT22;10824;51.632;4.950;2022-11-14T14:42:24;10.10;84.80
21331;DHT22;10824;51.632;4.950;2022-11-14T14:45:20;10.00;85.80
21331;DHT22;10824;51.632;4.950;2022-11-14T14:48:13;10.00;87.00
21331;DHT22;10824;51.632;4.950;2022-11-14T14:50:59;9.90;88.30
21331;DHT22;10824;51.632;4.950;2022-11-14T14:53:51;9.90;89.60
21331;DHT22;10824;51.632;4.950;2022-11-14T14:56:56;9.80;89.70
21331;DHT22;10824;51.632;4.950;2022-11-14T14:59:45;9.70;90.80
21331;DHT22;10824;51.632;4.950;2022-11-14T15:02:31;9.70;91.70
21331;DHT22;10824;51.632;4.950;2022-11-14T15:05:25;9.60;91.90
21331;DHT22;10824;51.632;4.950;2022-11-14T15:08:13;9.50;92.30
21331;DHT22;10824;51.632;4.950;2022-11-14T15:11:00;9.50;93.00
21331;DHT22;10824;51.632;4.950;2022-11-14T15:13:51;9.40;94.20
21331;DHT22;10824;51.632;4.950;2022-11-14T15:16:37;9.30;95.00
21331;DHT22;10824;51.632;4.950;2022-11-14T15:19:24;9.30;95.70
21331;DHT22;10824;51.632;4.950;2022-11-14T15:27:57;9.10;96.90
21331;DHT22;10824;51.632;4.950;2022-11-14T15:31:01;9.10;97.50
21331;DHT22;10824;51.632;4.950;2022-11-14T15:34:03;9.00;97.50
21331;DHT22;10824;51.632;4.950;2022-11-14T15:40:18;8.90;98.80
21331;DHT22;10824;51.632;4.950;2022-11-14T15:49:22;8.70;99.90
21331;DHT22;10824;51.632;4.950;2022-11-14T15:55:19;8.60;99.90
21331;DHT22;10824;51.632;4.950;2022-11-14T15:58:09;8.60;99.90
21331;DHT22;10824;51.632;4.950;2022-11-14T16:01:15;8.50;99.90
21331;DHT22;10824;51.632;4.950;2022-11-14T16:04:04;8.50;99.90
21331;DHT22;10824;51.632;4.950;2022-11-14T16:06:50;8.40;99.90
21331;DHT22;10824;51.632;4.950;2022-11-14T16:09:39;8.40;99.90
21331;DHT22;10824;51.632;4.950;2022-11-14T16:12:25;8.30;99.90
21331;DHT22;10824;51.632;4.950;2022-11-14T16:15:11;8.40;99.90
21331;DHT22;10824;51.632;4.950;2022-11-14T16:17:57;8.30;99.90
21331;DHT22;10824;51.632;4.950;2022-11-14T16:20:42;8.30;99.90
21331;DHT22;10824;51.632;4.950;2022-11-14T16:23:28;8.30;99.90
21331;DHT22;10824;51.632;4.950;2022-11-14T16:26:14;8.20;99.90
21331;DHT22;10824;51.632;4.950;2022-11-14T16:29:00;8.20;99.90
21331;DHT22;10824;51.632;4.950;2022-11-14T16:31:46;8.20;99.90
21331;DHT22;10824;51.632;4.950;2022-11-14T16:34:32;8.20;99.90
21331;DHT22;10824;51.632;4.950;2022-11-14T16:37:18;8.20;99.90
21331;DHT22;10824;51.632;4.950;2022-11-14T16:40:04;8.20;99.90
21331;DHT22;10824;51.632;4.950;2022-11-14T16:42:50;8.20;99.90
21331;DHT22;10824;51.632;4.950;2022-11-14T16:45:40;8.20;99.90
21331;DHT22;10824;51.632;4.950;2022-11-14T16:48:26;8.10;99.90
21331;DHT22;10824;51.632;4.950;2022-11-14T16:51:12;8.10;99.90
21331;DHT22;10824;51.632;4.950;2022-11-14T16:54:18;8.00;99.90
21331;DHT22;10824;51.632;4.950;2022-11-14T16:57:04;8.00;99.90
21331;DHT22;10824;51.632;4.950;2022-11-14T16:59:50;8.10;99.90
21331;DHT22;10824;51.632;4.950;2022-11-14T17:02:36;8.00;99.90
21331;DHT22;10824;51.632;4.950;2022-11-14T17:05:21;8.00;99.90
21331;DHT22;10824;51.632;4.950;2022-11-14T17:08:07;8.00;99.90
21331;DHT22;10824;51.632;4.950;2022-11-14T17:10:53;7.90;99.90
21331;DHT22;10824;51.632;4.950;2022-11-14T17:13:39;7.80;99.90
21331;DHT22;10824;51.632;4.950;2022-11-14T17:16:24;7.80;99.90
21331;DHT22;10824;51.632;4.950;2022-11-14T17:19:10;7.80;99.90
21331;DHT22;10824;51.632;4.950;2022-11-14T17:21:58;7.70;99.90
21331;DHT22;10824;51.632;4.950;2022-11-14T17:24:45;7.70;99.90
21331;DHT22;10824;51.632;4.950;2022-11-14T17:27:31;7.60;99.90
21331;DHT22;10824;51.632;4.950;2022-11-14T17:30:17;7.60;99.90
21331;DHT22;10824;51.632;4.950;2022-11-14T17:33:03;7.60;99.90
21331;DHT22;10824;51.632;4.950;2022-11-14T17:35:48;7.50;99.90
21331;DHT22;10824;51.632;4.950;2022-11-14T17:38:35;7.40;99.90
21331;DHT22;10824;51.632;4.950;2022-11-14T17:41:22;7.40;99.90
21331;DHT22;10824;51.632;4.950;2022-11-14T17:44:08;7.20;99.90
21331;DHT22;10824;51.632;4.950;2022-11-14T17:46:53;7.20;99.90
21331;DHT22;10824;51.632;4.950;2022-11-14T17:49:39;7.20;99.90
21331;DHT22;10824;51.632;4.950;2022-11-14T17:52:24;7.10;99.90
21331;DHT22;10824;51.632;4.950;2022-11-14T17:55:11;7.10;99.90
21331;DHT22;10824;51.632;4.950;2022-11-14T17:57:57;7.00;99.90
21331;DHT22;10824;51.632;4.950;2022-11-14T18:00:43;6.90;99.90
21331;DHT22;10824;51.632;4.950;2022-11-14T18:03:29;6.90;99.90
21331;DHT22;10824;51.632;4.950;2022-11-14T18:06:19;6.90;99.90
21331;DHT22;10824;51.632;4.950;2022-11-14T18:09:04;6.80;99.90
21331;DHT22;10824;51.632;4.950;2022-11-14T18:11:54;6.80;99.90
21331;DHT22;10824;51.632;4.950;2022-11-14T18:14:45;6.80;99.90
21331;DHT22;10824;51.632;4.950;2022-11-14T18:17:31;6.80;99.90
21331;DHT22;10824;51.632;4.950;2022-11-14T18:20:16;6.80;99.90
21331;DHT22;10824;51.632;4.950;2022-11-14T18:23:02;6.80;99.90
21331;DHT22;10824;51.632;4.950;2022-11-14T18:25:48;6.80;99.90
21331;DHT22;10824;51.632;4.950;2022-11-14T18:28:33;6.70;99.90
21331;DHT22;10824;51.632;4.950;2022-11-14T18:31:19;6.60;99.90
21331;DHT22;10824;51.632;4.950;2022-11-14T18:34:05;6.60;99.90
21331;DHT22;10824;51.632;4.950;2022-11-14T18:36:50;6.70;99.90
21331;DHT22;10824;51.632;4.950;2022-11-14T18:39:36;6.70;99.90
21331;DHT22;10824;51.632;4.950;2022-11-14T18:42:22;6.70;99.90
21331;DHT22;10824;51.632;4.950;2022-11-14T18:45:08;6.70;99.90
21331;DHT22;10824;51.632;4.950;2022-11-14T18:47:56;6.80;99.90
21331;DHT22;10824;51.632;4.950;2022-11-14T18:50:42;6.80;99.90
21331;DHT22;10824;51.632;4.950;2022-11-14T18:53:34;6.80;99.90
21331;DHT22;10824;51.632;4.950;2022-11-14T18:56:21;6.90;99.90
21331;DHT22;10824;51.632;4.950;2022-11-14T18:59:08;6.90;99.90
21331;DHT22;10824;51.632;4.950;2022-11-14T19:01:53;6.90;99.90
21331;DHT22;10824;51.632;4.950;2022-11-14T19:04:41;7.00;99.90
21331;DHT22;10824;51.632;4.950;2022-11-14T19:07:27;7.00;99.90
21331;DHT22;10824;51.632;4.950;2022-11-14T19:10:15;7.00;99.90
21331;DHT22;10824;51.632;4.950;2022-11-14T19:13:00;7.00;99.90
21331;DHT22;10824;51.632;4.950;2022-11-14T19:15:46;7.10;99.90
21331;DHT22;10824;51.632;4.950;2022-11-14T19:18:32;7.10;99.90
21331;DHT22;10824;51.632;4.950;2022-11-14T19:21:17;7.10;99.90
21331;DHT22;10824;51.632;4.950;2022-11-14T19:24:03;7.10;99.90
21331;DHT22;10824;51.632;4.950;2022-11-14T19:26:50;7.10;99.90
21331;DHT22;10824;51.632;4.950;2022-11-14T19:29:36;7.10;99.90
21331;DHT22;10824;51.632;4.950;2022-11-14T19:32:22;7.20;99.90
21331;DHT22;10824;51.632;4.950;2022-11-14T19:35:08;7.20;99.90
21331;DHT22;10824;51.632;4.950;2022-11-14T19:37:54;7.10;99.90
21331;DHT22;10824;51.632;4.950;2022-11-14T19:40:41;7.20;99.90
21331;DHT22;10824;51.632;4.950;2022-11-14T19:43:27;7.30;99.90
21331;DHT22;10824;51.632;4.950;2022-11-14T19:46:14;7.30;99.90
21331;DHT22;10824;51.632;4.950;2022-11-14T19:49:02;7.30;99.90
21331;DHT22;10824;51.632;4.950;2022-11-14T19:51:48;7.30;99.90
21331;DHT22;10824;51.632;4.950;2022-11-14T19:54:34;7.30;99.90
21331;DHT22;10824;51.632;4.950;2022-11-14T19:57:24;7.30;99.90
21331;DHT22;10824;51.632;4.950;2022-11-14T20:00:09;7.20;99.90
21331;DHT22;10824;51.632;4.950;2022-11-14T20:02:55;7.20;99.90
21331;DHT22;10824;51.632;4.950;2022-11-14T20:05:41;7.30;99.90
21331;DHT22;10824;51.632;4.950;2022-11-14T20:08:28;7.40;99.90
21331;DHT22;10824;51.632;4.950;2022-11-14T20:11:18;7.30;99.90
21331;DHT22;10824;51.632;4.950;2022-11-14T20:14:04;7.30;99.90
21331;DHT22;10824;51.632;4.950;2022-11-14T20:16:52;7.30;99.90
21331;DHT22;10824;51.632;4.950;2022-11-14T20:19:38;7.30;99.90
21331;DHT22;10824;51.632;4.950;2022-11-14T20:22:23;7.40;99.90
21331;DHT22;10824;51.632;4.950;2022-11-14T20:25:09;7.40;99.90